sensor_id;sensor_type;location;lat;lon;timestamp;pressure;altitude;pressure_sealevel;temperature;humidity
4972;BME280;2501;51.214;6.768;2023-04-02T00:01:51;100492.84;;;7.16;100.00
4972;BME280;2501;51.214;6.768;2023-04-02T00:04:20;100498.69;;;7.01;100.00
4972;BME280;2501;51.214;6.768;2023-04-02T00:07:22;100510.84;;;7.01;100.00
4972;BME280;2501;51.214;6.768;2023-04-02T00:09:55;100525.69;;;7.03;100.00
4972;BME280;2501;51.214;6.768;2023-04-02T00:12:23;100524.66;;;6.95;100.00
4972;BME280;2501;51.214;6.768;2023-04-02T00:14:55;100529.97;;;7.01;100.00
4972;BME280;2501;51.214;6.768;2023-04-02T00:17:24;100532.28;;;6.83;100.00
4972;BME280;2501;51.214;6.768;2023-04-02T00:19:56;100539.06;;;6.73;100.00
4972;BME280;2501;51.214;6.768;2023-04-02T00:22:27;100541.16;;;6.92;100.00
4972;BME280;2501;51.214;6.768;2023-04-02T00:25:00;100542.66;;;6.80;100.00
4972;BME280;2501;51.214;6.768;2023-04-02T00:27:30;100565.03;;;6.69;100.00
4972;BME280;2501;51.214;6.768;2023-04-02T00:30:01;100558.31;;;6.81;100.00
4972;BME280;2501;51.214;6.768;2023-04-02T00:32:30;100564.91;;;6.62;100.00
4972;BME280;2501;51.214;6.768;2023-04-02T00:35:00;100573.59;;;6.61;100.00
4972;BME280;2501;51.214;6.768;2023-04-02T00:37:31;100578.06;;;6.69;100.00
4972;BME280;2501;51.214;6.768;2023-04-02T00:40:07;100574.63;;;6.70;100.00
4972;BME280;2501;51.214;6.768;2023-04-02T00:42:37;100581.50;;;6.66;100.00
4972;BME280;2501;51.214;6.768;2023-04-02T00:45:17;100586.81;;;6.71;100.00
4972;BME280;2501;51.214;6.768;2023-04-02T00:47:49;100587.59;;;6.67;100.00
4972;BME280;2501;51.214;6.768;2023-04-02T00:50:22;100592.84;;;6.68;100.00
4972;BME280;2501;51.214;6.768;2023-04-02T00:52:53;100603.13;;;6.62;100.00
4972;BME280;2501;51.214;6.768;2023-04-02T00:55:26;100604.78;;;6.57;100.00
4972;BME280;2501;51.214;6.768;2023-04-02T00:57:59;100603.88;;;6.55;100.00
4972;BME280;2501;51.214;6.768;2023-04-02T01:00:33;100612.66;;;6.61;100.00
4972;BME280;2501;51.214;6.768;2023-04-02T01:03:27;100615.91;;;6.50;100.00
4972;BME280;2501;51.214;6.768;2023-04-02T01:06:01;100624.56;;;6.47;100.00
4972;BME280;2501;51.214;6.768;2023-04-02T01:08:53;100618.34;;;6.42;100.00
4972;BME280;2501;51.214;6.768;2023-04-02T01:14:38;100632.34;;;6.46;100.00
4972;BME280;2501;51.214;6.768;2023-04-02T01:17:23;100639.19;;;6.42;100.00
4972;BME280;2501;51.214;6.768;2023-04-02T01:20:18;100642.81;;;6.49;100.00
4972;BME280;2501;51.214;6.768;2023-04-02T01:22:54;100647.06;;;6.44;100.00
4972;BME280;2501;51.214;6.768;2023-04-02T01:25:31;100647.94;;;6.44;100.00
4972;BME280;2501;51.214;6.768;2023-04-02T01:28:06;100662.63;;;6.41;100.00
4972;BME280;2501;51.214;6.768;2023-04-02T01:30:44;100663.97;;;6.23;100.00
4972;BME280;2501;51.214;6.768;2023-04-02T01:33:12;100663.44;;;6.38;100.00
4972;BME280;2501;51.214;6.768;2023-04-02T01:35:43;100675.47;;;6.32;100.00
4972;BME280;2501;51.214;6.768;2023-04-02T01:38:21;100672.84;;;6.32;100.00
4972;BME280;2501;51.214;6.768;2023-04-02T01:40:56;100674.94;;;6.09;100.00
4972;BME280;2501;51.214;6.768;2023-04-02T01:43:31;100676.91;;;6.19;100.00
4972;BME280;2501;51.214;6.768;2023-04-02T01:46:23;100683.63;;;6.09;100.00
4972;BME280;2501;51.214;6.768;2023-04-02T01:48:52;100688.34;;;6.25;100.00
4972;BME280;2501;51.214;6.768;2023-04-02T01:51:26;100691.34;;;6.05;100.00
4972;BME280;2501;51.214;6.768;2023-04-02T01:53:57;100689.63;;;6.07;100.00
4972;BME280;2501;51.214;6.768;2023-04-02T01:56:27;100696.53;;;6.03;100.00
4972;BME280;2501;51.214;6.768;2023-04-02T01:58:58;100693.97;;;6.05;100.00
4972;BME280;2501;51.214;6.768;2023-04-02T02:01:34;100706.78;;;5.97;100.00
4972;BME280;2501;51.214;6.768;2023-04-02T02:04:04;100713.56;;;5.90;100.00
4972;BME280;2501;51.214;6.768;2023-04-02T02:06:33;100726.56;;;5.90;100.00
4972;BME280;2501;51.214;6.768;2023-04-02T02:09:04;100727.44;;;5.91;100.00
4972;BME280;2501;51.214;6.768;2023-04-02T02:11:33;100732.66;;;5.91;100.00
4972;BME280;2501;51.214;6.768;2023-04-02T02:14:08;100737.22;;;6.00;100.00
4972;BME280;2501;51.214;6.768;2023-04-02T02:16:44;100738.09;;;6.00;100.00
4972;BME280;2501;51.214;6.768;2023-04-02T02:19:21;100748.34;;;5.94;100.00
4972;BME280;2501;51.214;6.768;2023-04-02T02:21:51;100743.00;;;5.88;100.00
4972;BME280;2501;51.214;6.768;2023-04-02T02:24:23;100753.72;;;6.00;100.00
4972;BME280;2501;51.214;6.768;2023-04-02T02:27:01;100752.53;;;5.87;100.00
4972;BME280;2501;51.214;6.768;2023-04-02T02:29:34;100762.13;;;5.90;100.00
4972;BME280;2501;51.214;6.768;2023-04-02T02:32:08;100769.66;;;5.79;100.00
4972;BME280;2501;51.214;6.768;2023-04-02T02:34:41;100780.06;;;5.79;100.00
4972;BME280;2501;51.214;6.768;2023-04-02T02:37:13;100777.25;;;5.72;100.00
4972;BME280;2501;51.214;6.768;2023-04-02T02:39:48;100775.69;;;5.78;100.00
4972;BME280;2501;51.214;6.768;2023-04-02T02:42:24;100776.41;;;5.73;100.00
4972;BME280;2501;51.214;6.768;2023-04-02T02:44:54;100790.38;;;5.76;100.00
4972;BME280;2501;51.214;6.768;2023-04-02T02:47:28;100798.38;;;5.82;100.00
4972;BME280;2501;51.214;6.768;2023-04-02T02:50:00;100795.47;;;5.72;100.00
4972;BME280;2501;51.214;6.768;2023-04-02T02:52:31;100798.94;;;5.71;100.00
4972;BME280;2501;51.214;6.768;2023-04-02T02:55:05;100811.06;;;5.70;100.00
4972;BME280;2501;51.214;6.768;2023-04-02T02:57:38;100821.03;;;5.55;100.00
4972;BME280;2501;51.214;6.768;2023-04-02T03:00:09;100819.50;;;5.62;100.00
4972;BME280;2501;51.214;6.768;2023-04-02T03:02:43;100828.41;;;5.70;100.00
4972;BME280;2501;51.214;6.768;2023-04-02T03:05:16;100831.88;;;5.70;100.00
4972;BME280;2501;51.214;6.768;2023-04-02T03:07:46;100838.84;;;5.71;100.00
4972;BME280;2501;51.214;6.768;2023-04-02T03:10:20;100839.56;;;5.66;100.00
4972;BME280;2501;51.214;6.768;2023-04-02T03:12:55;100844.53;;;5.58;100.00
4972;BME280;2501;51.214;6.768;2023-04-02T03:15:31;100846.31;;;5.59;100.00
4972;BME280;2501;51.214;6.768;2023-04-02T03:18:07;100850.94;;;5.69;100.00
4972;BME280;2501;51.214;6.768;2023-04-02T03:20:43;100859.38;;;5.60;100.00
4972;BME280;2501;51.214;6.768;2023-04-02T03:23:17;100870.19;;;5.44;100.00
4972;BME280;2501;51.214;6.768;2023-04-02T03:25:51;100872.50;;;5.65;100.00
4972;BME280;2501;51.214;6.768;2023-04-02T03:28:26;100873.13;;;5.56;100.00
4972;BME280;2501;51.214;6.768;2023-04-02T03:30:58;100883.66;;;5.61;100.00
4972;BME280;2501;51.214;6.768;2023-04-02T03:33:33;100890.94;;;5.43;100.00
4972;BME280;2501;51.214;6.768;2023-04-02T03:36:12;100892.09;;;5.52;100.00
4972;BME280;2501;51.214;6.768;2023-04-02T03:38:44;100905.03;;;5.49;100.00
4972;BME280;2501;51.214;6.768;2023-04-02T03:41:18;100909.44;;;5.23;100.00
4972;BME280;2501;51.214;6.768;2023-04-02T03:43:52;100913.38;;;5.39;100.00
4972;BME280;2501;51.214;6.768;2023-04-02T03:46:25;100921.19;;;5.39;100.00
4972;BME280;2501;51.214;6.768;2023-04-02T03:49:00;100926.72;;;5.21;100.00
4972;BME280;2501;51.214;6.768;2023-04-02T03:51:33;100933.34;;;5.40;100.00
4972;BME280;2501;51.214;6.768;2023-04-02T03:54:04;100938.44;;;5.37;100.00
4972;BME280;2501;51.214;6.768;2023-04-02T03:56:35;100953.22;;;5.38;100.00
4972;BME280;2501;51.214;6.768;2023-04-02T03:59:13;100955.50;;;5.28;100.00
4972;BME280;2501;51.214;6.768;2023-04-02T04:01:48;100959.84;;;5.27;100.00
4972;BME280;2501;51.214;6.768;2023-04-02T04:04:26;100961.00;;;5.37;100.00
4972;BME280;2501;51.214;6.768;2023-04-02T04:06:57;100963.56;;;5.35;100.00
4972;BME280;2501;51.214;6.768;2023-04-02T04:09:30;100973.00;;;5.32;100.00
4972;BME280;2501;51.214;6.768;2023-04-02T04:12:09;100976.06;;;5.20;100.00
4972;BME280;2501;51.214;6.768;2023-04-02T04:14:43;100979.22;;;5.10;100.00
4972;BME280;2501;51.214;6.768;2023-04-02T04:17:21;100985.84;;;5.27;100.00
4972;BME280;2501;51.214;6.768;2023-04-02T04:19:59;100993.06;;;5.37;100.00
4972;BME280;2501;51.214;6.768;2023-04-02T04:22:32;100999.31;;;5.14;100.00
4972;BME280;2501;51.214;6.768;2023-04-02T04:25:17;101005.84;;;5.30;100.00
4972;BME280;2501;51.214;6.768;2023-04-02T04:27:54;101001.22;;;5.19;100.00
4972;BME280;2501;51.214;6.768;2023-04-02T04:30:38;101023.75;;;5.20;100.00
4972;BME280;2501;51.214;6.768;2023-04-02T04:33:15;101017.56;;;5.15;100.00
4972;BME280;2501;51.214;6.768;2023-04-02T04:35:52;101023.19;;;5.29;100.00
4972;BME280;2501;51.214;6.768;2023-04-02T04:38:30;101036.53;;;5.13;100.00
4972;BME280;2501;51.214;6.768;2023-04-02T04:41:03;101048.75;;;5.15;100.00
4972;BME280;2501;51.214;6.768;2023-04-02T04:43:39;101057.00;;;5.04;100.00
4972;BME280;2501;51.214;6.768;2023-04-02T04:46:11;101056.38;;;4.84;100.00
4972;BME280;2501;51.214;6.768;2023-04-02T04:48:49;101067.19;;;4.96;100.00
4972;BME280;2501;51.214;6.768;2023-04-02T04:51:25;101068.94;;;4.97;100.00
4972;BME280;2501;51.214;6.768;2023-04-02T04:53:55;101076.38;;;4.86;100.00
4972;BME280;2501;51.214;6.768;2023-04-02T04:56:25;101085.47;;;4.74;100.00
4972;BME280;2501;51.214;6.768;2023-04-02T04:58:59;101086.56;;;4.80;100.00
4972;BME280;2501;51.214;6.768;2023-04-02T05:01:33;101094.41;;;4.82;100.00
4972;BME280;2501;51.214;6.768;2023-04-02T05:04:10;101104.38;;;4.70;100.00
4972;BME280;2501;51.214;6.768;2023-04-02T05:06:50;101109.03;;;4.78;100.00
4972;BME280;2501;51.214;6.768;2023-04-02T05:09:24;101104.72;;;4.55;100.00
4972;BME280;2501;51.214;6.768;2023-04-02T05:12:02;101114.50;;;4.62;100.00
4972;BME280;2501;51.214;6.768;2023-04-02T05:14:36;101120.25;;;4.53;100.00
4972;BME280;2501;51.214;6.768;2023-04-02T05:17:10;101123.78;;;4.55;100.00
4972;BME280;2501;51.214;6.768;2023-04-02T05:19:45;101136.66;;;4.52;100.00
4972;BME280;2501;51.214;6.768;2023-04-02T05:22:27;101141.72;;;4.48;100.00
4972;BME280;2501;51.214;6.768;2023-04-02T05:25:07;101143.94;;;4.39;100.00
4972;BME280;2501;51.214;6.768;2023-04-02T05:27:40;101154.41;;;4.40;100.00
4972;BME280;2501;51.214;6.768;2023-04-02T05:30:27;101151.53;;;4.33;100.00
4972;BME280;2501;51.214;6.768;2023-04-02T05:33:02;101165.78;;;4.44;100.00
4972;BME280;2501;51.214;6.768;2023-04-02T05:35:34;101172.34;;;4.34;100.00
4972;BME280;2501;51.214;6.768;2023-04-02T05:38:06;101185.44;;;4.37;100.00
4972;BME280;2501;51.214;6.768;2023-04-02T05:40:37;101180.25;;;4.37;100.00
4972;BME280;2501;51.214;6.768;2023-04-02T05:43:08;101187.19;;;4.14;100.00
4972;BME280;2501;51.214;6.768;2023-04-02T05:45:40;101189.09;;;4.20;100.00
4972;BME280;2501;51.214;6.768;2023-04-02T05:48:16;101199.84;;;4.07;100.00
4972;BME280;2501;51.214;6.768;2023-04-02T05:50:48;101194.97;;;4.14;100.00
4972;BME280;2501;51.214;6.768;2023-04-02T05:53:24;101199.53;;;3.99;100.00
4972;BME280;2501;51.214;6.768;2023-04-02T05:55:57;101205.88;;;4.06;100.00
4972;BME280;2501;51.214;6.768;2023-04-02T05:58:31;101222.09;;;4.23;100.00
4972;BME280;2501;51.214;6.768;2023-04-02T06:01:15;101228.09;;;3.99;100.00
4972;BME280;2501;51.214;6.768;2023-04-02T06:03:50;101232.91;;;4.11;100.00
4972;BME280;2501;51.214;6.768;2023-04-02T06:06:26;101244.22;;;4.13;100.00
4972;BME280;2501;51.214;6.768;2023-04-02T06:09:04;101240.56;;;4.08;100.00
4972;BME280;2501;51.214;6.768;2023-04-02T06:11:38;101256.31;;;4.12;100.00
4972;BME280;2501;51.214;6.768;2023-04-02T06:14:10;101267.28;;;4.05;100.00
4972;BME280;2501;51.214;6.768;2023-04-02T06:16:40;101268.97;;;4.05;100.00
4972;BME280;2501;51.214;6.768;2023-04-02T06:19:15;101268.84;;;4.02;100.00
4972;BME280;2501;51.214;6.768;2023-04-02T06:21:44;101277.63;;;4.26;100.00
4972;BME280;2501;51.214;6.768;2023-04-02T06:24:19;101285.34;;;4.25;100.00
4972;BME280;2501;51.214;6.768;2023-04-02T06:26:52;101278.75;;;4.10;100.00
4972;BME280;2501;51.214;6.768;2023-04-02T06:29:26;101292.28;;;4.03;100.00
4972;BME280;2501;51.214;6.768;2023-04-02T06:31:57;101289.19;;;4.12;100.00
4972;BME280;2501;51.214;6.768;2023-04-02T06:34:29;101305.38;;;4.06;100.00
4972;BME280;2501;51.214;6.768;2023-04-02T06:37:00;101303.69;;;4.07;100.00
4972;BME280;2501;51.214;6.768;2023-04-02T06:39:31;101321.44;;;4.18;100.00
4972;BME280;2501;51.214;6.768;2023-04-02T06:42:03;101320.84;;;4.03;100.00
4972;BME280;2501;51.214;6.768;2023-04-02T06:44:34;101323.09;;;4.16;100.00
4972;BME280;2501;51.214;6.768;2023-04-02T06:47:06;101325.75;;;4.18;100.00
4972;BME280;2501;51.214;6.768;2023-04-02T06:49:44;101331.22;;;4.03;100.00
4972;BME280;2501;51.214;6.768;2023-04-02T06:52:20;101334.13;;;4.11;100.00
4972;BME280;2501;51.214;6.768;2023-04-02T06:54:53;101340.47;;;3.97;100.00
4972;BME280;2501;51.214;6.768;2023-04-02T06:57:21;101345.00;;;4.02;100.00
4972;BME280;2501;51.214;6.768;2023-04-02T06:59:50;101341.16;;;3.93;100.00
4972;BME280;2501;51.214;6.768;2023-04-02T07:02:25;101352.47;;;3.74;100.00
4972;BME280;2501;51.214;6.768;2023-04-02T07:05:00;101360.91;;;3.89;100.00
4972;BME280;2501;51.214;6.768;2023-04-02T07:07:29;101363.75;;;3.95;100.00
4972;BME280;2501;51.214;6.768;2023-04-02T07:10:00;101372.44;;;3.96;100.00
4972;BME280;2501;51.214;6.768;2023-04-02T07:12:29;101374.31;;;4.00;100.00
4972;BME280;2501;51.214;6.768;2023-04-02T07:14:58;101382.50;;;4.09;100.00
4972;BME280;2501;51.214;6.768;2023-04-02T07:17:26;101390.34;;;3.90;100.00
4972;BME280;2501;51.214;6.768;2023-04-02T07:19:55;101391.59;;;3.99;99.85
4972;BME280;2501;51.214;6.768;2023-04-02T07:22:23;101404.09;;;4.08;99.52
4972;BME280;2501;51.214;6.768;2023-04-02T07:24:52;101409.09;;;4.03;99.13
4972;BME280;2501;51.214;6.768;2023-04-02T07:27:23;101406.19;;;3.96;99.05
4972;BME280;2501;51.214;6.768;2023-04-02T07:29:52;101409.13;;;3.84;99.01
4972;BME280;2501;51.214;6.768;2023-04-02T07:32:21;101427.19;;;4.02;98.59
4972;BME280;2501;51.214;6.768;2023-04-02T07:34:49;101426.03;;;4.14;98.12
4972;BME280;2501;51.214;6.768;2023-04-02T07:37:18;101429.16;;;4.07;97.93
4972;BME280;2501;51.214;6.768;2023-04-02T07:39:46;101435.84;;;4.02;97.84
4972;BME280;2501;51.214;6.768;2023-04-02T07:42:15;101434.56;;;4.12;97.65
4972;BME280;2501;51.214;6.768;2023-04-02T07:44:46;101447.78;;;4.18;97.70
4972;BME280;2501;51.214;6.768;2023-04-02T07:47:15;101452.38;;;4.04;97.29
4972;BME280;2501;51.214;6.768;2023-04-02T07:49:44;101449.94;;;3.88;97.46
4972;BME280;2501;51.214;6.768;2023-04-02T07:52:12;101470.97;;;4.13;97.23
4972;BME280;2501;51.214;6.768;2023-04-02T07:54:41;101459.56;;;4.10;97.03
4972;BME280;2501;51.214;6.768;2023-04-02T07:57:09;101460.75;;;4.18;96.83
4972;BME280;2501;51.214;6.768;2023-04-02T07:59:38;101471.53;;;4.06;96.67
4972;BME280;2501;51.214;6.768;2023-04-02T08:02:17;101476.91;;;4.11;96.92
4972;BME280;2501;51.214;6.768;2023-04-02T08:04:46;101481.34;;;4.13;97.22
4972;BME280;2501;51.214;6.768;2023-04-02T08:07:15;101479.84;;;3.99;96.79
4972;BME280;2501;51.214;6.768;2023-04-02T08:09:44;101490.94;;;4.14;96.74
4972;BME280;2501;51.214;6.768;2023-04-02T08:12:13;101501.91;;;4.09;96.81
4972;BME280;2501;51.214;6.768;2023-04-02T08:14:41;101507.03;;;4.07;96.39
4972;BME280;2501;51.214;6.768;2023-04-02T08:17:10;101520.00;;;4.27;96.12
4972;BME280;2501;51.214;6.768;2023-04-02T08:19:41;101520.31;;;4.13;95.74
4972;BME280;2501;51.214;6.768;2023-04-02T08:22:09;101531.66;;;4.15;95.17
4972;BME280;2501;51.214;6.768;2023-04-02T08:24:38;101540.19;;;4.13;95.10
4972;BME280;2501;51.214;6.768;2023-04-02T08:27:06;101539.22;;;4.30;94.38
4972;BME280;2501;51.214;6.768;2023-04-02T08:29:35;101553.34;;;4.37;93.99
4972;BME280;2501;51.214;6.768;2023-04-02T08:32:03;101565.78;;;4.44;93.48
4972;BME280;2501;51.214;6.768;2023-04-02T08:34:32;101568.75;;;4.53;93.06
4972;BME280;2501;51.214;6.768;2023-04-02T08:37:03;101566.72;;;4.46;93.11
4972;BME280;2501;51.214;6.768;2023-04-02T08:39:32;101571.13;;;4.47;92.34
4972;BME280;2501;51.214;6.768;2023-04-02T08:42:03;101576.28;;;4.66;92.14
4972;BME280;2501;51.214;6.768;2023-04-02T08:44:41;101579.88;;;4.70;91.36
4972;BME280;2501;51.214;6.768;2023-04-02T08:47:13;101581.44;;;4.45;90.83
4972;BME280;2501;51.214;6.768;2023-04-02T08:49:50;101583.34;;;4.70;89.68
4972;BME280;2501;51.214;6.768;2023-04-02T08:52:26;101593.66;;;4.67;89.15
4972;BME280;2501;51.214;6.768;2023-04-02T08:54:56;101596.78;;;4.60;88.98
4972;BME280;2501;51.214;6.768;2023-04-02T08:57:31;101607.09;;;4.78;88.96
4972;BME280;2501;51.214;6.768;2023-04-02T09:00:06;101607.69;;;4.72;88.03
4972;BME280;2501;51.214;6.768;2023-04-02T09:02:39;101614.56;;;4.91;87.77
4972;BME280;2501;51.214;6.768;2023-04-02T09:05:16;101612.91;;;4.72;87.61
4972;BME280;2501;51.214;6.768;2023-04-02T09:07:49;101621.72;;;5.16;87.00
4972;BME280;2501;51.214;6.768;2023-04-02T09:10:18;101619.94;;;5.15;86.25
4972;BME280;2501;51.214;6.768;2023-04-02T09:12:50;101632.47;;;4.83;86.19
4972;BME280;2501;51.214;6.768;2023-04-02T09:15:27;101636.19;;;4.90;86.17
4972;BME280;2501;51.214;6.768;2023-04-02T09:18:02;101637.66;;;4.83;86.02
4972;BME280;2501;51.214;6.768;2023-04-02T09:20:33;101644.50;;;4.81;85.82
4972;BME280;2501;51.214;6.768;2023-04-02T09:23:04;101644.06;;;4.92;86.32
4972;BME280;2501;51.214;6.768;2023-04-02T09:25:33;101664.31;;;4.99;86.00
4972;BME280;2501;51.214;6.768;2023-04-02T09:28:03;101653.22;;;5.23;85.35
4972;BME280;2501;51.214;6.768;2023-04-02T09:30:41;101657.53;;;5.23;84.67
4972;BME280;2501;51.214;6.768;2023-04-02T09:33:17;101658.59;;;5.07;84.43
4972;BME280;2501;51.214;6.768;2023-04-02T09:35:54;101661.31;;;4.89;84.71
4972;BME280;2501;51.214;6.768;2023-04-02T09:38:26;101667.88;;;5.21;83.98
4972;BME280;2501;51.214;6.768;2023-04-02T09:40:59;101670.72;;;5.28;83.67
4972;BME280;2501;51.214;6.768;2023-04-02T09:43:29;101680.19;;;5.46;82.89
4972;BME280;2501;51.214;6.768;2023-04-02T09:45:59;101694.66;;;5.40;81.97
4972;BME280;2501;51.214;6.768;2023-04-02T09:48:30;101694.47;;;5.35;81.98
4972;BME280;2501;51.214;6.768;2023-04-02T09:51:10;101705.19;;;5.64;81.24
4972;BME280;2501;51.214;6.768;2023-04-02T09:53:43;101701.38;;;5.55;80.18
4972;BME280;2501;51.214;6.768;2023-04-02T09:56:16;101703.69;;;5.69;79.64
4972;BME280;2501;51.214;6.768;2023-04-02T09:59:01;101720.25;;;5.71;79.86
4972;BME280;2501;51.214;6.768;2023-04-02T10:01:32;101721.28;;;5.76;79.16
4972;BME280;2501;51.214;6.768;2023-04-02T10:04:03;101726.25;;;5.49;79.02
4972;BME280;2501;51.214;6.768;2023-04-02T10:06:33;101737.50;;;5.69;79.09
4972;BME280;2501;51.214;6.768;2023-04-02T10:09:27;101726.00;;;5.84;78.20
4972;BME280;2501;51.214;6.768;2023-04-02T10:11:57;101737.03;;;5.79;78.57
4972;BME280;2501;51.214;6.768;2023-04-02T10:14:29;101731.97;;;6.70;76.07
4972;BME280;2501;51.214;6.768;2023-04-02T10:17:06;101741.81;;;6.32;75.48
4972;BME280;2501;51.214;6.768;2023-04-02T10:19:37;101740.34;;;6.16;76.83
4972;BME280;2501;51.214;6.768;2023-04-02T10:22:12;101743.41;;;5.65;77.68
4972;BME280;2501;51.214;6.768;2023-04-02T10:24:44;101743.28;;;6.70;75.31
4972;BME280;2501;51.214;6.768;2023-04-02T10:27:20;101751.22;;;6.51;75.09
4972;BME280;2501;51.214;6.768;2023-04-02T10:30:10;101753.66;;;6.46;75.28
4972;BME280;2501;51.214;6.768;2023-04-02T10:32:46;101757.03;;;6.44;75.56
4972;BME280;2501;51.214;6.768;2023-04-02T10:35:31;101762.78;;;6.57;74.85
4972;BME280;2501;51.214;6.768;2023-04-02T10:38:21;101768.47;;;6.47;75.13
4972;BME280;2501;51.214;6.768;2023-04-02T10:40:58;101787.59;;;5.84;77.11
4972;BME280;2501;51.214;6.768;2023-04-02T10:43:36;101791.41;;;5.92;77.59
4972;BME280;2501;51.214;6.768;2023-04-02T10:46:11;101793.56;;;6.23;76.04
4972;BME280;2501;51.214;6.768;2023-04-02T10:48:47;101794.84;;;6.55;75.34
4972;BME280;2501;51.214;6.768;2023-04-02T10:51:28;101803.59;;;6.57;74.54
4972;BME280;2501;51.214;6.768;2023-04-02T10:54:10;101809.81;;;6.83;74.58
4972;BME280;2501;51.214;6.768;2023-04-02T10:56:48;101815.75;;;6.13;74.24
4972;BME280;2501;51.214;6.768;2023-04-02T10:59:22;101813.53;;;6.89;74.18
4972;BME280;2501;51.214;6.768;2023-04-02T11:01:54;101831.47;;;6.59;73.80
4972;BME280;2501;51.214;6.768;2023-04-02T11:04:29;101838.16;;;6.10;75.95
4972;BME280;2501;51.214;6.768;2023-04-02T11:07:03;101834.22;;;6.40;75.37
4972;BME280;2501;51.214;6.768;2023-04-02T11:09:37;101835.06;;;5.98;76.05
4972;BME280;2501;51.214;6.768;2023-04-02T11:12:19;101840.88;;;6.34;75.35
4972;BME280;2501;51.214;6.768;2023-04-02T11:14:50;101843.38;;;6.31;74.67
4972;BME280;2501;51.214;6.768;2023-04-02T11:17:20;101847.25;;;6.40;74.54
4972;BME280;2501;51.214;6.768;2023-04-02T11:19:49;101846.50;;;7.11;73.04
4972;BME280;2501;51.214;6.768;2023-04-02T11:22:19;101850.88;;;6.66;71.85
4972;BME280;2501;51.214;6.768;2023-04-02T11:24:49;101849.56;;;6.77;72.65
4972;BME280;2501;51.214;6.768;2023-04-02T11:27:24;101855.84;;;7.05;71.73
4972;BME280;2501;51.214;6.768;2023-04-02T11:30:01;101860.03;;;7.01;71.45
4972;BME280;2501;51.214;6.768;2023-04-02T11:32:36;101856.53;;;6.34;72.24
4972;BME280;2501;51.214;6.768;2023-04-02T11:35:26;101866.25;;;6.60;71.87
4972;BME280;2501;51.214;6.768;2023-04-02T11:37:55;101864.00;;;6.47;71.48
4972;BME280;2501;51.214;6.768;2023-04-02T11:40:46;101871.19;;;6.97;71.61
4972;BME280;2501;51.214;6.768;2023-04-02T11:43:50;101879.38;;;6.84;71.01
4972;BME280;2501;51.214;6.768;2023-04-02T11:46:38;101879.44;;;6.85;71.46
4972;BME280;2501;51.214;6.768;2023-04-02T11:49:34;101879.50;;;6.44;72.74
4972;BME280;2501;51.214;6.768;2023-04-02T11:52:17;101888.78;;;6.58;73.54
4972;BME280;2501;51.214;6.768;2023-04-02T11:54:54;101888.31;;;6.68;72.31
4972;BME280;2501;51.214;6.768;2023-04-02T11:57:32;101887.19;;;6.84;71.70
4972;BME280;2501;51.214;6.768;2023-04-02T12:00:19;101889.56;;;6.78;71.95
4972;BME280;2501;51.214;6.768;2023-04-02T12:02:59;101907.91;;;6.58;71.42
4972;BME280;2501;51.214;6.768;2023-04-02T12:05:38;101903.97;;;6.47;72.52
4972;BME280;2501;51.214;6.768;2023-04-02T12:08:27;101899.09;;;6.55;71.44
4972;BME280;2501;51.214;6.768;2023-04-02T12:11:01;101907.25;;;7.07;70.67
4972;BME280;2501;51.214;6.768;2023-04-02T12:13:46;101911.31;;;7.47;69.27
4972;BME280;2501;51.214;6.768;2023-04-02T12:16:20;101916.97;;;7.57;68.17
4972;BME280;2501;51.214;6.768;2023-04-02T12:18:50;101919.56;;;6.89;68.96
4972;BME280;2501;51.214;6.768;2023-04-02T12:21:22;101913.09;;;7.24;68.63
4972;BME280;2501;51.214;6.768;2023-04-02T12:23:53;101915.84;;;7.05;68.64
4972;BME280;2501;51.214;6.768;2023-04-02T12:26:33;101922.88;;;8.01;66.24
4972;BME280;2501;51.214;6.768;2023-04-02T12:29:30;101919.91;;;7.66;66.07
4972;BME280;2501;51.214;6.768;2023-04-02T12:32:01;101927.63;;;6.73;68.58
4972;BME280;2501;51.214;6.768;2023-04-02T12:34:30;101935.53;;;6.76;69.55
4972;BME280;2501;51.214;6.768;2023-04-02T12:37:00;101937.84;;;6.89;69.46
4972;BME280;2501;51.214;6.768;2023-04-02T12:39:30;101940.88;;;6.56;69.59
4972;BME280;2501;51.214;6.768;2023-04-02T12:41:59;101937.28;;;6.97;69.62
4972;BME280;2501;51.214;6.768;2023-04-02T12:44:29;101953.13;;;7.02;69.08
4972;BME280;2501;51.214;6.768;2023-04-02T12:47:01;101946.94;;;7.00;68.90
4972;BME280;2501;51.214;6.768;2023-04-02T12:49:34;101960.63;;;6.94;69.50
4972;BME280;2501;51.214;6.768;2023-04-02T12:52:05;101955.84;;;7.05;68.58
4972;BME280;2501;51.214;6.768;2023-04-02T12:54:43;101960.41;;;7.11;68.45
4972;BME280;2501;51.214;6.768;2023-04-02T12:57:20;101972.94;;;6.76;69.80
4972;BME280;2501;51.214;6.768;2023-04-02T12:59:49;101969.00;;;6.86;69.65
4972;BME280;2501;51.214;6.768;2023-04-02T13:02:21;101968.66;;;6.78;69.43
4972;BME280;2501;51.214;6.768;2023-04-02T13:04:51;101983.06;;;7.34;68.79
4972;BME280;2501;51.214;6.768;2023-04-02T13:07:22;101972.69;;;7.58;67.53
4972;BME280;2501;51.214;6.768;2023-04-02T13:09:52;101983.44;;;6.78;67.62
4972;BME280;2501;51.214;6.768;2023-04-02T13:12:26;101998.75;;;6.91;68.25
4972;BME280;2501;51.214;6.768;2023-04-02T13:14:59;101992.34;;;6.62;70.42
4972;BME280;2501;51.214;6.768;2023-04-02T13:17:40;101988.88;;;7.05;69.60
4972;BME280;2501;51.214;6.768;2023-04-02T13:20:28;101998.69;;;6.89;68.95
4972;BME280;2501;51.214;6.768;2023-04-02T13:22:57;101995.69;;;7.01;68.75
4972;BME280;2501;51.214;6.768;2023-04-02T13:25:28;101994.28;;;7.31;67.60
4972;BME280;2501;51.214;6.768;2023-04-02T13:27:57;101999.47;;;6.87;67.86
4972;BME280;2501;51.214;6.768;2023-04-02T13:30:27;101999.72;;;7.15;67.12
4972;BME280;2501;51.214;6.768;2023-04-02T13:32:58;101993.28;;;6.85;67.24
4972;BME280;2501;51.214;6.768;2023-04-02T13:35:27;102001.94;;;7.49;66.80
4972;BME280;2501;51.214;6.768;2023-04-02T13:37:55;102004.13;;;7.16;66.81
4972;BME280;2501;51.214;6.768;2023-04-02T13:40:27;102009.88;;;7.30;66.67
4972;BME280;2501;51.214;6.768;2023-04-02T13:42:56;102015.47;;;6.96;66.77
4972;BME280;2501;51.214;6.768;2023-04-02T13:45:26;102015.41;;;6.94;67.69
4972;BME280;2501;51.214;6.768;2023-04-02T13:47:58;102015.34;;;7.36;66.89
4972;BME280;2501;51.214;6.768;2023-04-02T13:50:30;102013.31;;;7.97;64.68
4972;BME280;2501;51.214;6.768;2023-04-02T13:53:03;102024.59;;;7.73;64.42
4972;BME280;2501;51.214;6.768;2023-04-02T13:55:36;102029.69;;;8.17;62.63
4972;BME280;2501;51.214;6.768;2023-04-02T13:58:07;102032.28;;;7.92;61.94